createdAt,value
2018-03-04T00:00:16.531Z,137.63
2018-03-04T00:02:44.129Z,134.40
2018-03-04T00:05:11.768Z,126.67
2018-03-04T00:07:39.425Z,114.30
2018-03-04T00:10:07.076Z,118.73
2018-03-04T00:12:34.669Z,130.57
2018-03-04T00:15:02.299Z,152.63
2018-03-04T00:17:29.951Z,150.07
2018-03-04T00:19:57.627Z,140.70
2018-03-04T00:22:37.089Z,140.60
2018-03-04T00:25:04.717Z,133.80
2018-03-04T00:27:32.287Z,134.03
2018-03-04T00:29:59.943Z,136.90
2018-03-04T00:32:27.583Z,132.30
2018-03-04T00:34:55.152Z,145.10
2018-03-04T00:37:22.782Z,143.17
2018-03-04T00:39:50.443Z,132.50
2018-03-04T00:42:18.006Z,133.47
2018-03-04T00:44:45.606Z,140.10
2018-03-04T00:47:13.226Z,137.70
2018-03-04T00:49:40.823Z,140.63
2018-03-04T00:52:08.462Z,144.90
2018-03-04T00:54:36.086Z,154.80
2018-03-04T00:57:03.653Z,153.90
2018-03-04T00:59:31.227Z,140.83
2018-03-04T01:01:58.810Z,116.73
2018-03-04T01:04:26.387Z,138.57
2018-03-04T01:06:54.272Z,124.37
2018-03-04T01:09:21.838Z,113.57
2018-03-04T01:11:49.514Z,107.70
2018-03-04T01:14:17.143Z,134.23
2018-03-04T01:16:44.777Z,128.77
2018-03-04T01:19:12.429Z,106.77
2018-03-04T01:21:40.071Z,108.23
2018-03-04T01:24:08.496Z,110.07
2018-03-04T01:26:36.067Z,120.10
2018-03-04T01:29:03.677Z,117.33
2018-03-04T01:31:31.254Z,124.20
2018-03-04T01:33:58.905Z,125.27
2018-03-04T01:36:26.513Z,130.50
2018-03-04T01:38:54.207Z,133.57
2018-03-04T01:41:21.814Z,125.70
2018-03-04T01:43:49.433Z,125.03
2018-03-04T01:46:17.008Z,116.93
2018-03-04T01:48:44.688Z,129.33
2018-03-04T01:51:12.528Z,117.27
2018-03-04T01:53:40.163Z,136.70
2018-03-04T01:56:07.787Z,129.60
2018-03-04T01:58:35.457Z,121.73
2018-03-04T02:01:03.122Z,129.47
2018-03-04T02:03:30.719Z,116.47
2018-03-04T02:05:58.443Z,113.77
2018-03-04T02:08:26.167Z,138.87
2018-03-04T02:10:53.794Z,155.20
2018-03-04T02:13:21.394Z,136.73
2018-03-04T02:15:49.095Z,149.43
2018-03-04T02:18:16.750Z,164.07
2018-03-04T02:20:44.367Z,155.60
2018-03-04T02:23:12.051Z,150.73
2018-03-04T02:25:40.663Z,162.23
2018-03-04T02:28:08.313Z,162.57
2018-03-04T02:30:35.890Z,159.73
2018-03-04T02:33:03.504Z,152.70
2018-03-04T02:35:31.154Z,159.70
2018-03-04T02:37:58.732Z,139.57
2018-03-04T02:40:26.536Z,151.33
2018-03-04T02:42:54.194Z,139.00
2018-03-04T02:45:21.802Z,125.30
2018-03-04T02:47:49.375Z,133.73
2018-03-04T02:50:16.992Z,127.27
2018-03-04T02:52:44.559Z,115.43
2018-03-04T02:55:12.200Z,119.87
2018-03-04T02:57:39.767Z,101.90
2018-03-04T03:00:07.443Z,107.03
2018-03-04T03:02:35.122Z,94.40
2018-03-04T03:05:02.728Z,93.87
2018-03-04T03:07:30.308Z,93.93
2018-03-04T03:09:57.894Z,91.33
2018-03-04T03:12:25.534Z,108.80
2018-03-04T03:14:53.114Z,102.17
2018-03-04T03:17:20.735Z,99.20
2018-03-04T03:19:48.294Z,87.00
2018-03-04T03:22:16.050Z,83.00
2018-03-04T03:24:43.699Z,79.17
2018-03-04T03:27:11.325Z,90.47
2018-03-04T03:29:38.891Z,142.17
2018-03-04T03:32:06.578Z,123.27
2018-03-04T03:34:34.252Z,73.27
2018-03-04T03:37:01.822Z,82.27
2018-03-04T03:39:29.415Z,79.27
2018-03-04T03:41:57.056Z,77.80
2018-03-04T03:44:24.608Z,65.43
2018-03-04T03:46:52.402Z,65.07
2018-03-04T03:49:19.998Z,64.93
2018-03-04T03:51:47.613Z,60.17
2018-03-04T03:54:15.174Z,66.30
2018-03-04T03:56:42.772Z,71.97
2018-03-04T03:59:10.482Z,101.10
2018-03-04T04:01:38.058Z,67.30
2018-03-04T04:04:05.759Z,112.17
2018-03-04T04:06:33.468Z,122.63
2018-03-04T04:09:01.169Z,88.27
2018-03-04T04:11:28.741Z,96.23
2018-03-04T04:13:56.371Z,88.93
2018-03-04T04:16:23.980Z,94.03
2018-03-04T04:18:51.714Z,86.30
2018-03-04T04:21:19.342Z,87.93
2018-03-04T04:23:46.949Z,97.73
2018-03-04T04:26:14.651Z,99.37
2018-03-04T04:28:42.344Z,100.60
2018-03-04T04:31:09.986Z,98.00
2018-03-04T04:33:37.594Z,89.60
2018-03-04T04:36:05.180Z,86.50
2018-03-04T04:38:32.870Z,94.27
2018-03-04T04:41:00.493Z,116.40
2018-03-04T04:43:28.124Z,99.33
2018-03-04T04:45:55.778Z,99.70
2018-03-04T04:48:23.531Z,102.37
2018-03-04T04:50:51.169Z,104.77
2018-03-04T04:53:18.823Z,87.70
2018-03-04T04:55:46.454Z,77.33
2018-03-04T04:58:14.036Z,73.10
2018-03-04T05:00:41.614Z,72.80
2018-03-04T05:03:09.183Z,68.87
2018-03-04T05:05:36.841Z,69.63
2018-03-04T05:08:04.533Z,70.00
2018-03-04T05:10:32.154Z,68.10
2018-03-04T05:12:59.795Z,73.17
2018-03-04T05:15:27.382Z,73.40
2018-03-04T05:17:55.024Z,79.57
2018-03-04T05:20:22.629Z,73.57
2018-03-04T05:22:50.253Z,67.67
2018-03-04T05:25:17.880Z,71.33
2018-03-04T05:27:45.560Z,73.13
2018-03-04T05:30:13.217Z,67.73
2018-03-04T05:32:40.781Z,85.13
2018-03-04T05:35:08.399Z,82.87
2018-03-04T05:37:35.981Z,81.57
2018-03-04T05:40:03.610Z,81.60
2018-03-04T05:42:31.253Z,78.70
2018-03-04T05:44:58.911Z,79.00
2018-03-04T05:47:26.623Z,85.87
2018-03-04T05:49:54.197Z,78.80
2018-03-04T05:52:21.761Z,87.13
2018-03-04T05:54:50.206Z,89.23
2018-03-04T05:57:17.856Z,87.07
2018-03-04T05:59:45.487Z,95.90
2018-03-04T06:02:13.072Z,89.10
2018-03-04T06:04:40.700Z,101.73
2018-03-04T06:07:08.327Z,81.67
2018-03-04T06:09:35.976Z,98.33
2018-03-04T06:12:03.618Z,94.13
2018-03-04T06:14:31.182Z,85.87
2018-03-04T06:16:58.874Z,115.27
2018-03-04T06:19:26.484Z,79.17
2018-03-04T06:21:54.044Z,84.87
2018-03-04T06:24:21.613Z,99.80
2018-03-04T06:26:49.174Z,86.57
2018-03-04T06:29:16.751Z,89.60
2018-03-04T06:31:44.342Z,87.73
2018-03-04T06:34:12.016Z,83.20
2018-03-04T06:36:39.688Z,82.97
2018-03-04T06:39:07.295Z,91.10
2018-03-04T06:41:34.864Z,88.20
2018-03-04T06:44:02.492Z,80.43
2018-03-04T06:46:30.097Z,86.03
2018-03-04T06:48:57.751Z,80.57
2018-03-04T06:51:25.414Z,83.77
2018-03-04T06:53:53.095Z,83.57
2018-03-04T06:56:20.745Z,91.73
2018-03-04T06:58:48.329Z,88.63
2018-03-04T07:01:16.048Z,103.47
2018-03-04T07:03:43.665Z,85.90
2018-03-04T07:06:11.423Z,104.03
2018-03-04T07:08:39.110Z,99.57
2018-03-04T07:11:06.710Z,109.67
2018-03-04T07:13:34.274Z,131.50
2018-03-04T07:16:01.911Z,150.50
2018-03-04T07:18:29.598Z,170.83
2018-03-04T07:20:57.170Z,155.50
2018-03-04T07:23:24.738Z,136.57
2018-03-04T07:25:52.384Z,133.33
2018-03-04T07:28:19.963Z,119.70
2018-03-04T07:30:47.583Z,119.43
2018-03-04T07:33:15.243Z,157.90
2018-03-04T07:35:42.805Z,117.90
2018-03-04T07:38:10.478Z,113.50
2018-03-04T07:40:38.175Z,140.53
2018-03-04T07:43:05.783Z,97.53
2018-03-04T07:45:33.353Z,121.30
2018-03-04T07:48:00.916Z,137.30
2018-03-04T07:50:28.578Z,127.70
2018-03-04T07:52:56.197Z,139.93
2018-03-04T07:55:23.807Z,131.50
2018-03-04T07:57:51.377Z,133.40
2018-03-04T08:00:19.107Z,129.30
2018-03-04T08:02:46.695Z,120.23
2018-03-04T08:05:15.019Z,114.50
2018-03-04T08:07:42.586Z,133.13
2018-03-04T08:10:10.166Z,143.27
2018-03-04T08:12:37.796Z,136.63
2018-03-04T08:15:06.537Z,137.27
2018-03-04T08:17:34.123Z,113.37
2018-03-04T08:20:01.756Z,124.67
2018-03-04T08:22:29.347Z,117.40
2018-03-04T08:25:08.839Z,127.27
2018-03-04T08:27:48.118Z,117.07
2018-03-04T08:30:15.814Z,115.67
2018-03-04T08:32:43.446Z,105.70
2018-03-04T08:35:11.018Z,103.10
2018-03-04T08:37:38.601Z,98.13
2018-03-04T08:40:06.562Z,98.47
2018-03-04T08:42:34.207Z,93.77
2018-03-04T08:45:01.789Z,68.77
2018-03-04T08:47:29.466Z,77.20
2018-03-04T08:49:57.071Z,104.07
2018-03-04T08:52:24.695Z,80.97
2018-03-04T08:54:52.294Z,90.27
2018-03-04T08:57:20.943Z,82.40
2018-03-04T08:59:48.703Z,110.80
2018-03-04T09:02:16.380Z,126.33
2018-03-04T09:04:44.804Z,199.97
2018-03-04T09:07:12.431Z,100.57
2018-03-04T09:09:40.049Z,95.33
2018-03-04T09:12:07.691Z,92.23
2018-03-04T09:14:35.350Z,119.57
2018-03-04T09:17:02.998Z,110.17
2018-03-04T09:19:30.646Z,107.03
2018-03-04T09:21:58.366Z,94.23
2018-03-04T09:24:25.963Z,89.00
2018-03-04T09:26:54.404Z,101.73
2018-03-04T09:29:22.098Z,100.60
2018-03-04T09:31:49.682Z,104.90
2018-03-04T09:34:17.984Z,105.50
2018-03-04T09:36:45.674Z,100.33
2018-03-04T09:39:13.347Z,101.40
2018-03-04T09:41:41.031Z,122.00
2018-03-04T09:44:08.628Z,119.40
2018-03-04T09:46:36.189Z,125.47
2018-03-04T09:49:03.869Z,132.83
2018-03-04T09:51:31.479Z,135.47
2018-03-04T09:53:59.163Z,136.10
2018-03-04T09:56:26.836Z,125.67
2018-03-04T09:58:54.483Z,114.23
2018-03-04T10:01:22.094Z,109.10
2018-03-04T10:03:49.801Z,119.37
2018-03-04T10:06:17.422Z,108.80
2018-03-04T10:08:45.077Z,127.80
2018-03-04T10:11:12.654Z,128.47
2018-03-04T10:13:40.348Z,126.17
2018-03-04T10:16:07.971Z,122.83
2018-03-04T10:18:35.609Z,121.63
2018-03-04T10:21:03.190Z,129.90
2018-03-04T10:23:30.763Z,106.80
2018-03-04T10:25:58.405Z,118.40
2018-03-04T10:28:25.968Z,106.80
2018-03-04T10:30:53.648Z,124.67
2018-03-04T10:33:21.216Z,113.20
2018-03-04T10:35:48.802Z,119.03
2018-03-04T10:38:16.388Z,94.17
2018-03-04T10:40:43.955Z,109.03
2018-03-04T10:43:11.598Z,118.60
2018-03-04T10:45:39.623Z,126.17
2018-03-04T10:48:07.320Z,132.33
2018-03-04T10:50:34.942Z,125.90
2018-03-04T10:53:02.584Z,110.90
2018-03-04T10:55:30.169Z,109.73
2018-03-04T10:57:57.762Z,129.80
2018-03-04T11:00:25.350Z,98.07
2018-03-04T11:02:52.958Z,100.80
2018-03-04T11:05:20.615Z,102.20
2018-03-04T11:07:48.240Z,110.03
2018-03-04T11:10:15.860Z,115.90
2018-03-04T11:12:43.491Z,106.63
2018-03-04T11:15:11.072Z,111.17
2018-03-04T11:17:38.744Z,120.93
2018-03-04T11:20:06.313Z,104.60
2018-03-04T11:22:33.997Z,113.93
2018-03-04T11:25:01.679Z,127.80
2018-03-04T11:27:29.244Z,102.93
2018-03-04T11:29:56.825Z,94.93
2018-03-04T11:32:24.465Z,89.80
2018-03-04T11:34:52.038Z,86.73
2018-03-04T11:37:19.612Z,94.97
2018-03-04T11:39:47.304Z,108.00
2018-03-04T11:42:14.862Z,91.33
2018-03-04T11:44:42.510Z,109.00
2018-03-04T11:47:10.160Z,88.40
2018-03-04T11:49:37.737Z,93.03
2018-03-04T11:52:05.315Z,92.40
2018-03-04T11:54:32.895Z,89.73
2018-03-04T11:57:00.565Z,97.20
2018-03-04T11:59:28.141Z,117.07
2018-03-04T12:01:55.812Z,104.77
2018-03-04T12:04:23.381Z,92.93
2018-03-04T12:06:50.981Z,117.77
2018-03-04T12:09:18.627Z,102.53
2018-03-04T12:11:46.185Z,110.87
2018-03-04T12:14:13.875Z,120.20
2018-03-04T12:16:41.503Z,124.43
2018-03-04T12:19:09.126Z,97.10
2018-03-04T12:21:36.719Z,116.13
2018-03-04T12:24:04.290Z,103.53
2018-03-04T12:26:31.865Z,117.17
2018-03-04T12:28:59.429Z,125.60
2018-03-04T12:31:27.052Z,108.63
2018-03-04T12:33:54.680Z,122.10
2018-03-04T12:36:22.314Z,165.33
2018-03-04T12:38:49.891Z,115.70
2018-03-04T12:41:17.546Z,130.63
2018-03-04T12:45:40.690Z,130.10
2018-03-04T12:48:08.313Z,141.90
2018-03-04T12:50:35.890Z,133.43
2018-03-04T12:53:03.508Z,114.77
2018-03-04T12:55:31.175Z,119.93
2018-03-04T12:57:58.748Z,120.37
2018-03-04T13:00:26.345Z,136.23
2018-03-04T13:02:53.914Z,149.93
2018-03-04T13:05:21.526Z,113.47
2018-03-04T13:07:49.127Z,108.27
2018-03-04T13:10:16.766Z,125.43
2018-03-04T13:12:44.379Z,93.77
2018-03-04T13:15:11.954Z,104.07
2018-03-04T13:17:39.535Z,117.13
2018-03-04T13:20:07.163Z,155.00
2018-03-04T13:22:34.795Z,120.57
2018-03-04T13:25:02.393Z,122.10
2018-03-04T13:27:29.965Z,122.07
2018-03-04T13:29:57.607Z,118.70
2018-03-04T13:32:25.231Z,116.97
2018-03-04T13:34:52.810Z,120.67
2018-03-04T13:37:20.366Z,143.87
2018-03-04T13:39:47.986Z,134.00
2018-03-04T13:42:15.562Z,155.37
2018-03-04T13:44:43.114Z,126.00
2018-03-04T13:47:10.695Z,160.67
2018-03-04T13:49:38.268Z,171.40
2018-03-04T13:52:05.849Z,148.57
2018-03-04T13:54:33.415Z,163.77
2018-03-04T13:57:01.042Z,196.90
2018-03-04T13:59:28.622Z,197.83
2018-03-04T14:01:56.202Z,191.20
2018-03-04T14:04:23.783Z,158.60
2018-03-04T14:06:51.412Z,165.70
2018-03-04T14:09:18.971Z,123.97
2018-03-04T14:11:46.597Z,134.97
2018-03-04T14:14:14.218Z,159.90
2018-03-04T14:16:41.792Z,162.80
2018-03-04T14:19:09.369Z,144.10
2018-03-04T14:21:36.942Z,190.33
2018-03-04T14:24:04.511Z,164.30
2018-03-04T14:26:32.207Z,172.30
2018-03-04T14:28:59.772Z,158.60
2018-03-04T14:31:27.398Z,169.13
2018-03-04T14:33:55.024Z,152.10
2018-03-04T14:36:22.592Z,146.93
2018-03-04T14:38:50.224Z,145.50
2018-03-04T14:41:17.869Z,118.60
2018-03-04T14:43:45.442Z,126.07
2018-03-04T14:46:12.999Z,124.90
2018-03-04T14:48:40.566Z,132.77
2018-03-04T14:51:08.196Z,139.70
2018-03-04T14:53:35.760Z,141.67
2018-03-04T14:56:03.345Z,142.80
2018-03-04T14:58:30.931Z,131.73
2018-03-04T15:00:58.500Z,138.20
2018-03-04T15:03:26.138Z,155.87
2018-03-04T15:05:53.711Z,150.37
2018-03-04T15:08:21.344Z,156.20
2018-03-04T15:10:48.922Z,138.30
2018-03-04T15:13:16.521Z,143.83
2018-03-04T15:15:44.109Z,157.20
2018-03-04T15:18:11.685Z,147.90
2018-03-04T15:20:39.302Z,154.50
2018-03-04T15:23:06.937Z,178.97
2018-03-04T15:25:34.497Z,142.13
2018-03-04T15:28:02.141Z,148.37
2018-03-04T15:30:29.769Z,139.83
2018-03-04T15:32:57.416Z,154.87
2018-03-04T15:35:24.979Z,162.03
2018-03-04T15:37:52.603Z,144.37
2018-03-04T15:40:20.176Z,151.93
2018-03-04T15:42:47.745Z,129.50
2018-03-04T15:45:15.312Z,132.43
2018-03-04T15:47:42.905Z,174.57
2018-03-04T15:50:10.514Z,152.40
2018-03-04T15:52:38.181Z,131.90
2018-03-04T15:55:05.835Z,131.87
2018-03-04T15:57:33.420Z,123.60
2018-03-04T16:00:01.009Z,129.20
2018-03-04T16:02:28.602Z,133.43
2018-03-04T16:04:56.197Z,157.53
2018-03-04T16:07:23.799Z,148.13
2018-03-04T16:09:51.370Z,152.73
2018-03-04T16:12:19.049Z,128.77
2018-03-04T16:14:46.626Z,145.40
2018-03-04T16:17:14.204Z,136.60
2018-03-04T16:19:41.842Z,107.27
2018-03-04T16:22:09.410Z,123.80
2018-03-04T16:24:36.999Z,122.47
2018-03-04T16:27:04.633Z,118.47
2018-03-04T16:29:32.253Z,104.97
2018-03-04T16:31:59.844Z,106.43
2018-03-04T16:34:27.474Z,94.37
2018-03-04T16:36:55.052Z,96.63
2018-03-04T16:39:22.778Z,106.10
2018-03-04T16:41:50.425Z,106.00
2018-03-04T16:44:18.068Z,112.40
2018-03-04T16:46:45.695Z,106.27
2018-03-04T16:49:13.283Z,100.43
2018-03-04T16:51:40.851Z,95.07
2018-03-04T16:54:08.487Z,99.83
2018-03-04T16:56:36.111Z,109.47
2018-03-04T16:59:03.748Z,101.63
2018-03-04T17:01:31.429Z,99.30
2018-03-04T17:03:59.118Z,108.63
2018-03-04T17:06:26.697Z,110.23
2018-03-04T17:08:54.288Z,110.07
2018-03-04T17:11:21.940Z,117.33
2018-03-04T17:13:49.518Z,126.37
2018-03-04T17:16:17.085Z,99.37
2018-03-04T17:18:44.711Z,118.60
2018-03-04T17:21:12.334Z,110.17
2018-03-04T17:23:39.963Z,108.10
2018-03-04T17:26:07.546Z,105.97
2018-03-04T17:28:35.112Z,92.93
2018-03-04T17:31:02.673Z,97.70
2018-03-04T17:33:30.271Z,101.60
2018-03-04T17:35:59.174Z,108.33
2018-03-04T17:38:26.859Z,114.73
2018-03-04T17:40:54.426Z,159.83
2018-03-04T17:43:22.046Z,165.53
2018-03-04T17:45:49.722Z,145.80
2018-03-04T17:48:17.367Z,166.70
2018-03-04T17:50:44.972Z,155.93
2018-03-04T17:53:12.615Z,140.63
2018-03-04T17:55:40.349Z,147.33
2018-03-04T17:58:07.934Z,150.40
2018-03-04T18:00:35.516Z,120.67
2018-03-04T18:03:03.169Z,141.40
2018-03-04T18:05:30.837Z,122.57
2018-03-04T18:07:58.414Z,131.57
2018-03-04T18:10:25.988Z,214.03
2018-03-04T18:12:53.616Z,136.97
2018-03-04T18:15:21.191Z,131.33
2018-03-04T18:17:48.837Z,135.60
2018-03-04T18:20:16.411Z,154.00
2018-03-04T18:22:43.979Z,151.87
2018-03-04T18:25:11.646Z,139.23
2018-03-04T18:27:39.227Z,165.47
2018-03-04T18:30:06.855Z,181.40
2018-03-04T18:32:34.488Z,168.60
2018-03-04T18:35:02.172Z,161.00
2018-03-04T18:37:29.759Z,148.20
2018-03-04T18:39:57.344Z,149.67
2018-03-04T18:42:24.993Z,160.27
2018-03-04T18:44:52.539Z,151.50
2018-03-04T18:47:20.187Z,152.23
2018-03-04T18:49:47.762Z,152.57
2018-03-04T18:52:15.341Z,130.03
2018-03-04T18:54:42.979Z,148.83
2018-03-04T18:57:10.552Z,159.47
2018-03-04T18:59:38.131Z,151.47
2018-03-04T19:02:05.699Z,163.90
2018-03-04T19:04:33.347Z,131.43
2018-03-04T19:07:00.911Z,136.03
2018-03-04T19:09:28.475Z,134.13
2018-03-04T19:11:56.054Z,171.47
2018-03-04T19:14:23.637Z,161.07
2018-03-04T19:16:51.210Z,159.20
2018-03-04T19:19:18.798Z,148.93
2018-03-04T19:21:46.362Z,165.97
2018-03-04T19:24:13.949Z,169.00
2018-03-04T19:26:41.523Z,196.43
2018-03-04T19:29:09.197Z,207.27
2018-03-04T19:31:36.828Z,175.37
2018-03-04T19:34:04.398Z,165.63
2018-03-04T19:36:32.031Z,219.93
2018-03-04T19:38:59.604Z,255.87
2018-03-04T19:41:27.256Z,251.33
2018-03-04T19:43:54.823Z,182.07
2018-03-04T19:46:22.453Z,185.57
2018-03-04T19:48:50.045Z,185.97
2018-03-04T19:51:17.678Z,179.37
2018-03-04T19:53:45.254Z,184.27
2018-03-04T19:56:12.822Z,175.77
2018-03-04T19:58:40.440Z,194.97
2018-03-04T20:01:08.068Z,188.70
2018-03-04T20:03:35.694Z,186.90
2018-03-04T20:06:03.331Z,184.67
2018-03-04T20:08:30.973Z,186.30
2018-03-04T20:10:58.666Z,158.57
2018-03-04T20:13:26.293Z,167.47
2018-03-04T20:15:53.922Z,153.30
2018-03-04T20:18:21.555Z,159.37
2018-03-04T20:20:49.140Z,147.47
2018-03-04T20:23:16.714Z,150.97
2018-03-04T20:25:44.360Z,156.80
2018-03-04T20:28:11.971Z,167.83
2018-03-04T20:30:39.603Z,176.90
2018-03-04T20:33:07.281Z,198.53
2018-03-04T20:35:34.852Z,189.27
2018-03-04T20:38:02.497Z,174.27
2018-03-04T20:40:30.183Z,188.30
2018-03-04T20:42:57.758Z,207.57
2018-03-04T20:45:25.400Z,205.77
2018-03-04T20:47:53.043Z,192.97
2018-03-04T20:50:20.629Z,181.60
2018-03-04T20:52:48.275Z,183.77
2018-03-04T20:55:15.909Z,172.33
2018-03-04T20:57:43.532Z,168.47
2018-03-04T21:00:11.263Z,171.00
2018-03-04T21:02:38.887Z,148.60
2018-03-04T21:05:06.523Z,166.73
2018-03-04T21:07:34.080Z,165.60
2018-03-04T21:10:01.716Z,168.53
2018-03-04T21:12:29.287Z,151.30
2018-03-04T21:14:57.022Z,159.53
2018-03-04T21:17:24.582Z,145.13
2018-03-04T21:19:52.149Z,152.73
2018-03-04T21:22:19.737Z,145.70
2018-03-04T21:24:47.353Z,136.67
2018-03-04T21:27:14.924Z,148.33
2018-03-04T21:29:42.496Z,124.53
2018-03-04T21:32:10.110Z,147.63
2018-03-04T21:34:37.747Z,134.03
2018-03-04T21:37:05.376Z,128.70
2018-03-04T21:39:33.019Z,137.23
2018-03-04T21:42:00.642Z,127.47
2018-03-04T21:44:28.263Z,123.23
2018-03-04T21:46:55.822Z,135.67
2018-03-04T21:49:23.516Z,122.03
2018-03-04T21:51:51.078Z,120.83
2018-03-04T21:54:18.647Z,139.40
2018-03-04T21:56:46.231Z,105.63
2018-03-04T21:59:13.796Z,115.87
2018-03-04T22:01:41.391Z,114.50
2018-03-04T22:04:08.962Z,102.13
2018-03-04T22:06:36.592Z,116.60
2018-03-04T22:09:04.292Z,108.50
2018-03-04T22:11:31.859Z,111.40
2018-03-04T22:13:59.415Z,110.80
2018-03-04T22:16:26.974Z,131.73
2018-03-04T22:18:54.614Z,133.90
2018-03-04T22:21:22.243Z,110.30
2018-03-04T22:23:49.859Z,116.20
2018-03-04T22:26:17.422Z,111.20
2018-03-04T22:28:44.993Z,118.60
2018-03-04T22:31:12.581Z,123.87
2018-03-04T22:33:40.151Z,113.40
2018-03-04T22:36:07.784Z,121.73
2018-03-04T22:38:35.414Z,128.23
2018-03-04T22:41:03.052Z,124.03
2018-03-04T22:43:30.622Z,118.47
2018-03-04T22:45:58.191Z,110.20
2018-03-04T22:48:25.814Z,122.87
2018-03-04T22:50:53.382Z,115.87
2018-03-04T22:53:20.956Z,133.67
2018-03-04T22:55:48.518Z,111.63
2018-03-04T22:58:16.139Z,137.93
2018-03-04T23:00:43.715Z,108.17
2018-03-04T23:03:11.283Z,120.50
2018-03-04T23:05:38.860Z,119.57
2018-03-04T23:08:06.440Z,110.27
2018-03-04T23:10:34.021Z,117.83
2018-03-04T23:13:01.638Z,118.90
2018-03-04T23:15:29.254Z,114.97
2018-03-04T23:17:56.821Z,110.70
2018-03-04T23:20:24.444Z,110.43
2018-03-04T23:22:52.036Z,132.17
2018-03-04T23:25:19.602Z,131.57
2018-03-04T23:27:47.295Z,139.07
2018-03-04T23:30:14.860Z,132.83
2018-03-04T23:32:42.431Z,124.33
2018-03-04T23:35:10.076Z,134.63
2018-03-04T23:37:37.706Z,141.30
2018-03-04T23:40:05.399Z,196.60
2018-03-04T23:42:32.965Z,132.50
2018-03-04T23:45:00.532Z,185.53
2018-03-04T23:47:28.105Z,155.43
2018-03-04T23:49:55.702Z,114.37
2018-03-04T23:52:23.382Z,129.07
2018-03-04T23:54:50.947Z,113.50
2018-03-04T23:57:18.590Z,126.50
2018-03-04T23:59:46.222Z,117.60
